createdAt,value
2018-10-17T00:00:14.692Z,6.60
2018-10-17T00:02:43.351Z,6.83
2018-10-17T00:05:11.850Z,6.87
2018-10-17T00:07:40.335Z,7.20
2018-10-17T00:10:10.181Z,6.67
2018-10-17T00:12:39.169Z,7.07
2018-10-17T00:15:08.306Z,6.77
2018-10-17T00:17:36.762Z,6.73
2018-10-17T00:20:05.855Z,7.20
2018-10-17T00:22:34.329Z,6.57
2018-10-17T00:25:02.868Z,6.57
2018-10-17T00:27:31.323Z,6.77
2018-10-17T00:29:59.872Z,6.00
2018-10-17T00:32:28.351Z,6.77
2018-10-17T00:34:56.855Z,6.97
2018-10-17T00:37:25.299Z,7.20
2018-10-17T00:39:53.775Z,7.10
2018-10-17T00:42:22.234Z,6.90
2018-10-17T00:44:50.703Z,7.03
2018-10-17T00:47:19.202Z,7.17
2018-10-17T00:49:47.671Z,6.70
2018-10-17T00:52:16.156Z,6.73
2018-10-17T00:54:44.652Z,7.30
2018-10-17T00:57:13.114Z,7.30
2018-10-17T00:59:41.590Z,8.10
2018-10-17T01:02:10.047Z,7.30
2018-10-17T01:04:38.519Z,7.70
2018-10-17T01:07:07.034Z,6.53
2018-10-17T01:09:35.478Z,6.77
2018-10-17T01:12:04.017Z,6.50
2018-10-17T01:14:32.445Z,7.20
2018-10-17T01:17:00.963Z,7.67
2018-10-17T01:19:29.406Z,7.60
2018-10-17T01:21:57.874Z,7.00
2018-10-17T01:24:26.362Z,7.43
2018-10-17T01:26:54.889Z,6.50
2018-10-17T01:29:23.356Z,7.67
2018-10-17T01:31:51.828Z,7.33
2018-10-17T01:34:20.332Z,6.87
2018-10-17T01:36:49.018Z,7.00
2018-10-17T01:39:17.528Z,8.03
2018-10-17T01:41:46.102Z,7.30
2018-10-17T01:44:14.690Z,7.17
2018-10-17T01:46:43.190Z,7.40
2018-10-17T01:49:11.828Z,7.90
2018-10-17T01:51:40.229Z,7.57
2018-10-17T01:54:08.714Z,7.00
2018-10-17T01:56:37.316Z,7.40
2018-10-17T01:59:06.426Z,7.20
2018-10-17T02:01:34.882Z,6.90
2018-10-17T02:04:03.355Z,7.07
2018-10-17T02:06:31.931Z,7.37
2018-10-17T02:09:00.515Z,7.20
2018-10-17T02:11:29.018Z,7.20
2018-10-17T02:13:57.643Z,7.30
2018-10-17T02:16:26.125Z,7.33
2018-10-17T02:18:54.646Z,6.97
2018-10-17T02:21:23.087Z,8.17
2018-10-17T02:23:51.575Z,7.40
2018-10-17T02:26:20.339Z,7.03
2018-10-17T02:28:48.820Z,6.83
2018-10-17T02:31:17.338Z,6.87
2018-10-17T02:33:45.776Z,6.90
2018-10-17T02:36:14.237Z,7.33
2018-10-17T02:38:42.875Z,6.73
2018-10-17T02:41:11.408Z,7.17
2018-10-17T02:43:39.814Z,7.10
2018-10-17T02:46:08.305Z,7.27
2018-10-17T02:48:36.787Z,7.57
2018-10-17T02:51:05.314Z,7.37
2018-10-17T02:53:33.785Z,7.10
2018-10-17T02:56:02.264Z,7.10
2018-10-17T02:58:30.756Z,7.60
2018-10-17T03:00:59.316Z,7.73
2018-10-17T03:03:27.730Z,7.43
2018-10-17T03:05:56.254Z,7.23
2018-10-17T03:08:24.714Z,7.17
2018-10-17T03:10:53.240Z,7.27
2018-10-17T03:13:21.707Z,7.43
2018-10-17T03:15:50.191Z,7.80
2018-10-17T03:18:18.656Z,7.27
2018-10-17T03:20:47.155Z,7.53
2018-10-17T03:23:15.667Z,7.63
2018-10-17T03:25:44.103Z,7.90
2018-10-17T03:28:12.587Z,7.43
2018-10-17T03:30:41.076Z,8.87
2018-10-17T03:33:09.562Z,9.40
2018-10-17T03:35:38.045Z,9.90
2018-10-17T03:38:06.623Z,9.80
2018-10-17T03:40:35.376Z,10.13
2018-10-17T03:43:03.905Z,10.30
2018-10-17T03:45:32.373Z,9.57
2018-10-17T03:48:00.879Z,9.50
2018-10-17T03:50:29.599Z,9.10
2018-10-17T03:52:58.130Z,8.07
2018-10-17T03:55:26.631Z,8.20
2018-10-17T03:57:55.107Z,8.07
2018-10-17T04:00:23.574Z,7.90
2018-10-17T04:02:52.045Z,7.73
2018-10-17T04:05:20.541Z,8.30
2018-10-17T04:07:49.011Z,8.07
2018-10-17T04:10:17.481Z,8.30
2018-10-17T04:12:46.002Z,8.40
2018-10-17T04:15:14.486Z,8.17
2018-10-17T04:17:42.946Z,8.40
2018-10-17T04:20:11.411Z,7.83
2018-10-17T04:22:44.346Z,8.27
2018-10-17T04:25:12.870Z,8.47
2018-10-17T04:27:41.272Z,8.13
2018-10-17T04:30:09.735Z,7.63
2018-10-17T04:32:38.219Z,8.27
2018-10-17T04:35:06.819Z,8.50
2018-10-17T04:37:35.204Z,8.50
2018-10-17T04:40:03.690Z,7.93
2018-10-17T04:42:33.096Z,7.83
2018-10-17T04:45:01.580Z,9.03
2018-10-17T04:47:30.148Z,8.03
2018-10-17T04:49:58.583Z,7.70
2018-10-17T04:52:27.945Z,7.73
2018-10-17T04:54:56.558Z,7.80
2018-10-17T04:57:24.959Z,7.97
2018-10-17T04:59:53.490Z,7.87
2018-10-17T05:02:22.035Z,8.40
2018-10-17T05:04:50.547Z,8.37
2018-10-17T05:07:19.044Z,8.37
2018-10-17T05:09:47.515Z,7.87
2018-10-17T05:12:15.992Z,8.87
2018-10-17T05:14:44.542Z,8.40
2018-10-17T05:17:13.099Z,8.37
2018-10-17T05:19:41.519Z,8.40
2018-10-17T05:22:10.497Z,7.63
2018-10-17T05:24:39.156Z,8.30
2018-10-17T05:27:07.673Z,7.90
2018-10-17T05:29:36.170Z,7.60
2018-10-17T05:32:04.770Z,7.23
2018-10-17T05:34:33.309Z,8.13
2018-10-17T05:37:01.814Z,7.90
2018-10-17T05:39:30.292Z,7.37
2018-10-17T05:41:58.980Z,7.77
2018-10-17T05:44:27.636Z,7.63
2018-10-17T05:46:56.221Z,7.47
2018-10-17T05:49:24.674Z,8.33
2018-10-17T05:51:53.172Z,7.30
2018-10-17T05:54:21.647Z,7.87
2018-10-17T05:56:50.117Z,8.17
2018-10-17T05:59:18.598Z,7.20
2018-10-17T06:01:47.316Z,8.00
2018-10-17T06:04:15.639Z,7.90
2018-10-17T06:06:44.107Z,8.27
2018-10-17T06:09:12.901Z,8.43
2018-10-17T06:11:41.814Z,7.60
2018-10-17T06:14:17.815Z,8.10
2018-10-17T06:16:46.896Z,8.53
2018-10-17T06:19:15.627Z,8.23
2018-10-17T06:21:44.114Z,8.03
2018-10-17T06:24:12.595Z,7.47
2018-10-17T06:26:41.069Z,7.80
2018-10-17T06:29:09.655Z,7.93
2018-10-17T06:31:38.070Z,7.70
2018-10-17T06:34:06.711Z,7.73
2018-10-17T06:36:35.103Z,7.90
2018-10-17T06:39:03.931Z,8.40
2018-10-17T06:41:32.396Z,7.80
2018-10-17T06:44:00.988Z,8.67
2018-10-17T06:46:29.379Z,7.60
2018-10-17T06:48:57.876Z,7.63
2018-10-17T06:51:26.352Z,7.57
2018-10-17T06:53:54.891Z,8.00
2018-10-17T06:56:23.363Z,8.00
2018-10-17T06:58:51.899Z,9.00
2018-10-17T07:01:20.360Z,8.27
2018-10-17T07:03:48.840Z,8.20
2018-10-17T07:06:17.326Z,7.90
2018-10-17T07:08:46.659Z,7.87
2018-10-17T07:11:15.236Z,7.63
2018-10-17T07:13:43.626Z,8.07
2018-10-17T07:16:12.093Z,8.43
2018-10-17T07:18:40.566Z,7.97
2018-10-17T07:21:09.062Z,8.93
2018-10-17T07:23:37.534Z,8.13
2018-10-17T07:26:06.116Z,8.03
2018-10-17T07:28:34.615Z,7.63
2018-10-17T07:31:03.135Z,8.10
2018-10-17T07:33:31.600Z,7.93
2018-10-17T07:36:00.075Z,7.83
2018-10-17T07:38:28.550Z,8.00
2018-10-17T07:40:57.063Z,7.57
2018-10-17T07:43:25.546Z,8.50
2018-10-17T07:45:54.010Z,7.90
2018-10-17T07:48:22.489Z,8.00
2018-10-17T07:50:50.967Z,8.10
2018-10-17T07:53:19.509Z,7.90
2018-10-17T07:55:48.004Z,7.60
2018-10-17T07:58:16.473Z,7.80
2018-10-17T08:00:44.942Z,8.20
2018-10-17T08:03:13.418Z,8.00
2018-10-17T08:05:41.892Z,8.43
2018-10-17T08:08:10.371Z,7.20
2018-10-17T08:10:38.863Z,8.63
2018-10-17T08:13:07.359Z,8.30
2018-10-17T08:15:35.842Z,8.30
2018-10-17T08:18:04.346Z,7.73
2018-10-17T08:20:32.822Z,7.90
2018-10-17T08:23:01.307Z,8.17
2018-10-17T08:25:29.779Z,7.90
2018-10-17T08:27:58.257Z,7.37
2018-10-17T08:30:26.759Z,7.93
2018-10-17T08:32:55.238Z,8.10
2018-10-17T08:35:23.787Z,8.27
2018-10-17T08:37:52.669Z,8.00
2018-10-17T08:40:20.703Z,7.50
2018-10-17T08:42:49.202Z,8.07
2018-10-17T08:45:17.775Z,8.00
2018-10-17T08:47:46.227Z,7.77
2018-10-17T08:50:14.823Z,7.90
2018-10-17T08:52:43.271Z,8.13
2018-10-17T08:55:11.748Z,8.40
2018-10-17T08:57:40.283Z,7.90
2018-10-17T09:00:08.851Z,7.73
2018-10-17T09:02:37.364Z,8.53
2018-10-17T09:05:05.835Z,7.97
2018-10-17T09:07:34.329Z,8.33
2018-10-17T09:10:02.811Z,7.63
2018-10-17T09:12:31.300Z,7.30
2018-10-17T09:14:59.780Z,8.00
2018-10-17T09:17:28.255Z,8.33
2018-10-17T09:19:56.980Z,7.87
2018-10-17T09:22:25.473Z,7.87
2018-10-17T09:24:53.810Z,8.10
2018-10-17T09:27:22.259Z,7.93
2018-10-17T09:29:50.732Z,8.37
2018-10-17T09:32:19.215Z,7.90
2018-10-17T09:34:47.723Z,8.47
2018-10-17T09:37:16.219Z,7.53
2018-10-17T09:39:44.700Z,8.37
2018-10-17T09:42:13.275Z,8.73
2018-10-17T09:44:41.670Z,8.00
2018-10-17T09:47:10.170Z,8.53
2018-10-17T09:49:38.643Z,8.53
2018-10-17T09:52:07.182Z,8.43
2018-10-17T09:54:36.465Z,7.97
2018-10-17T09:57:04.993Z,8.00
2018-10-17T09:59:33.476Z,7.77
2018-10-17T10:02:01.976Z,7.90
2018-10-17T10:04:30.471Z,7.93
2018-10-17T10:06:58.947Z,7.90
2018-10-17T10:09:27.416Z,7.77
2018-10-17T10:11:55.930Z,8.27
2018-10-17T10:14:24.439Z,8.40
2018-10-17T10:16:52.930Z,8.03
2018-10-17T10:19:21.428Z,8.20
2018-10-17T10:21:49.890Z,8.27
2018-10-17T10:24:18.416Z,7.90
2018-10-17T10:26:46.878Z,7.87
2018-10-17T10:29:15.368Z,8.67
2018-10-17T10:31:43.858Z,7.97
2018-10-17T10:34:12.415Z,7.73
2018-10-17T10:36:40.830Z,8.00
2018-10-17T10:39:10.802Z,8.50
2018-10-17T10:41:39.499Z,7.97
2018-10-17T10:44:08.821Z,8.17
2018-10-17T10:46:37.265Z,7.77
2018-10-17T10:49:05.844Z,8.67
2018-10-17T10:51:34.393Z,8.50
2018-10-17T10:54:02.838Z,7.77
2018-10-17T10:56:31.323Z,7.87
2018-10-17T10:58:59.825Z,7.93
2018-10-17T11:01:28.434Z,8.07
2018-10-17T11:03:56.909Z,8.20
2018-10-17T11:06:25.378Z,8.47
2018-10-17T11:08:53.859Z,8.37
2018-10-17T11:11:22.322Z,8.83
2018-10-17T11:13:50.841Z,9.07
2018-10-17T11:16:19.314Z,7.73
2018-10-17T11:18:47.785Z,7.70
2018-10-17T11:21:16.343Z,7.87
2018-10-17T11:23:44.764Z,7.97
2018-10-17T11:26:13.234Z,8.60
2018-10-17T11:28:41.717Z,8.47
2018-10-17T11:31:10.202Z,8.07
2018-10-17T11:33:38.669Z,8.00
2018-10-17T11:36:07.168Z,8.00
2018-10-17T11:38:35.635Z,8.03
2018-10-17T11:41:04.193Z,8.07
2018-10-17T11:43:32.611Z,7.73
2018-10-17T11:46:01.095Z,7.50
2018-10-17T11:48:29.585Z,8.27
2018-10-17T11:50:58.109Z,8.30
2018-10-17T11:53:26.696Z,7.80
2018-10-17T11:55:55.166Z,7.73
2018-10-17T11:58:23.639Z,8.13
2018-10-17T12:00:52.137Z,7.53
2018-10-17T12:03:20.623Z,7.77
2018-10-17T12:05:49.347Z,8.20
2018-10-17T12:08:17.610Z,8.13
2018-10-17T12:10:46.086Z,7.93
2018-10-17T12:13:14.564Z,8.07
2018-10-17T12:15:43.896Z,8.13
2018-10-17T12:18:12.955Z,7.60
2018-10-17T12:20:41.375Z,7.67
2018-10-17T12:23:09.874Z,8.03
2018-10-17T12:25:38.350Z,7.93
2018-10-17T12:28:07.038Z,7.97
2018-10-17T12:30:35.371Z,7.90
2018-10-17T12:33:03.907Z,7.57
2018-10-17T12:35:32.341Z,8.07
2018-10-17T12:38:00.815Z,7.53
2018-10-17T12:40:29.423Z,7.70
2018-10-17T12:42:57.808Z,7.70
2018-10-17T12:45:26.293Z,7.33
2018-10-17T12:47:54.806Z,7.33
2018-10-17T12:50:23.412Z,7.93
2018-10-17T12:52:51.915Z,7.60
2018-10-17T12:55:20.339Z,7.40
2018-10-17T12:57:48.829Z,8.07
2018-10-17T13:00:17.332Z,8.30
2018-10-17T13:02:45.820Z,7.93
2018-10-17T13:05:14.412Z,7.60
2018-10-17T13:07:42.819Z,8.13
2018-10-17T13:10:11.977Z,7.87
2018-10-17T13:12:40.775Z,8.07
2018-10-17T13:15:10.437Z,7.37
2018-10-17T13:17:38.860Z,7.27
2018-10-17T13:20:07.335Z,7.40
2018-10-17T13:22:35.839Z,7.40
2018-10-17T13:25:04.355Z,7.57
2018-10-17T13:27:32.830Z,8.13
2018-10-17T13:30:01.377Z,7.70
2018-10-17T13:32:29.875Z,7.80
2018-10-17T13:34:58.367Z,7.27
2018-10-17T13:37:26.898Z,7.40
2018-10-17T13:39:55.363Z,7.20
2018-10-17T13:42:24.347Z,7.30
2018-10-17T13:44:52.840Z,7.47
2018-10-17T13:47:21.403Z,7.63
2018-10-17T13:49:49.802Z,7.97
2018-10-17T13:52:18.270Z,8.27
2018-10-17T13:54:47.043Z,7.50
2018-10-17T13:57:15.502Z,7.27
2018-10-17T13:59:44.043Z,7.13
2018-10-17T14:02:12.487Z,7.23
2018-10-17T14:04:40.972Z,7.00
2018-10-17T14:07:09.494Z,7.53
2018-10-17T14:09:37.966Z,7.47
2018-10-17T14:12:07.070Z,7.83
2018-10-17T14:14:35.498Z,7.50
2018-10-17T14:17:03.972Z,7.13
2018-10-17T14:19:32.497Z,7.43
2018-10-17T14:22:01.077Z,7.40
2018-10-17T14:24:29.543Z,7.60
2018-10-17T14:26:58.075Z,7.67
2018-10-17T14:29:26.534Z,7.60
2018-10-17T14:31:55.175Z,7.20
2018-10-17T14:34:23.638Z,6.97
2018-10-17T14:36:52.179Z,7.47
2018-10-17T14:39:20.735Z,7.40
2018-10-17T14:41:49.165Z,6.77
2018-10-17T14:44:17.630Z,7.13
2018-10-17T14:46:46.111Z,7.03
2018-10-17T14:49:14.603Z,8.00
2018-10-17T14:51:43.076Z,7.60
2018-10-17T14:54:11.583Z,7.47
2018-10-17T14:56:40.106Z,7.50
2018-10-17T14:59:08.634Z,7.43
2018-10-17T15:01:37.099Z,6.53
2018-10-17T15:04:05.589Z,7.20
2018-10-17T15:06:34.141Z,7.00
2018-10-17T15:09:02.745Z,7.20
2018-10-17T15:11:31.220Z,6.80
2018-10-17T15:13:59.729Z,7.07
2018-10-17T15:16:28.343Z,7.20
2018-10-17T15:18:56.803Z,6.33
2018-10-17T15:21:25.266Z,7.63
2018-10-17T15:23:53.797Z,7.30
2018-10-17T15:26:22.294Z,7.23
2018-10-17T15:28:50.766Z,6.97
2018-10-17T15:31:19.385Z,7.57
2018-10-17T15:33:47.790Z,6.80
2018-10-17T15:36:16.374Z,7.10
2018-10-17T15:38:44.756Z,7.10
2018-10-17T15:41:13.222Z,6.73
2018-10-17T15:43:41.794Z,6.47
2018-10-17T15:46:10.242Z,7.30
2018-10-17T15:48:38.712Z,7.33
2018-10-17T15:51:07.280Z,6.90
2018-10-17T15:53:35.766Z,6.93
2018-10-17T15:56:04.530Z,6.83
2018-10-17T15:58:33.001Z,6.53
2018-10-17T16:01:01.552Z,6.50
2018-10-17T16:03:29.987Z,6.83
2018-10-17T16:05:58.465Z,7.17
2018-10-17T16:08:26.992Z,7.13
2018-10-17T16:10:55.455Z,7.03
2018-10-17T16:13:23.955Z,7.70
2018-10-17T16:15:52.439Z,6.77
2018-10-17T16:18:20.902Z,7.30
2018-10-17T16:20:49.375Z,7.27
2018-10-17T16:23:17.928Z,7.20
2018-10-17T16:25:46.357Z,6.87
2018-10-17T16:28:14.823Z,7.07
2018-10-17T16:30:43.384Z,6.73
2018-10-17T16:33:11.814Z,7.23
2018-10-17T16:35:40.285Z,6.87
2018-10-17T16:38:08.784Z,7.23
2018-10-17T16:40:37.277Z,6.83
2018-10-17T16:43:06.098Z,7.27
2018-10-17T16:45:34.581Z,6.67
2018-10-17T16:48:03.088Z,7.03
2018-10-17T16:50:31.650Z,7.00
2018-10-17T16:53:00.074Z,7.07
2018-10-17T16:55:28.538Z,6.50
2018-10-17T16:57:57.035Z,6.97
2018-10-17T17:00:25.527Z,6.50
2018-10-17T17:02:54.042Z,6.73
2018-10-17T17:05:22.506Z,7.00
2018-10-17T17:07:50.967Z,7.00
2018-10-17T17:10:19.434Z,6.70
2018-10-17T17:12:47.900Z,6.87
2018-10-17T17:15:16.437Z,6.57
2018-10-17T17:17:44.887Z,6.73
2018-10-17T17:20:13.365Z,6.43
2018-10-17T17:22:42.012Z,6.60
2018-10-17T17:25:10.726Z,6.60
2018-10-17T17:27:39.423Z,6.80
2018-10-17T17:30:12.567Z,6.80
2018-10-17T17:32:41.048Z,6.77
2018-10-17T17:35:09.556Z,6.77
2018-10-17T17:37:38.018Z,6.53
2018-10-17T17:40:07.948Z,6.87
2018-10-17T17:42:36.410Z,6.83
2018-10-17T17:45:04.883Z,7.00
2018-10-17T17:47:33.367Z,6.63
2018-10-17T17:50:01.837Z,6.77
2018-10-17T17:52:30.349Z,6.57
2018-10-17T17:54:58.872Z,6.77
2018-10-17T17:57:27.375Z,6.93
2018-10-17T17:59:55.855Z,6.67
2018-10-17T18:02:24.355Z,6.70
2018-10-17T18:04:52.815Z,7.20
2018-10-17T18:07:21.364Z,6.97
2018-10-17T18:09:49.891Z,6.77
2018-10-17T18:12:18.380Z,6.57
2018-10-17T18:14:46.851Z,6.53
2018-10-17T18:17:15.335Z,6.93
2018-10-17T18:19:43.866Z,6.30
2018-10-17T18:22:12.367Z,7.07
2018-10-17T18:24:40.988Z,6.30
2018-10-17T18:27:09.471Z,6.80
2018-10-17T18:29:37.943Z,6.73
2018-10-17T18:32:06.488Z,6.87
2018-10-17T18:34:34.976Z,6.73
2018-10-17T18:37:03.459Z,6.40
2018-10-17T18:39:31.943Z,6.60
2018-10-17T18:42:00.443Z,6.30
2018-10-17T18:44:28.953Z,6.60
2018-10-17T18:46:57.427Z,7.20
2018-10-17T18:49:25.912Z,6.50
2018-10-17T18:51:54.407Z,6.53
2018-10-17T18:54:22.873Z,7.10
2018-10-17T18:56:51.389Z,6.90
2018-10-17T18:59:19.878Z,6.83
2018-10-17T19:01:48.376Z,6.60
2018-10-17T19:04:16.845Z,7.60
2018-10-17T19:06:45.323Z,6.73
2018-10-17T19:09:14.715Z,7.13
2018-10-17T19:11:43.139Z,6.60
2018-10-17T19:14:11.649Z,6.27
2018-10-17T19:16:40.127Z,7.13
2018-10-17T19:19:08.596Z,7.23
2018-10-17T19:21:37.089Z,6.73
2018-10-17T19:24:05.949Z,7.10
2018-10-17T19:26:34.440Z,7.07
2018-10-17T19:29:02.922Z,6.77
2018-10-17T19:31:31.419Z,7.00
2018-10-17T19:33:59.898Z,7.23
2018-10-17T19:36:28.387Z,7.20
2018-10-17T19:38:56.897Z,7.83
2018-10-17T19:41:25.346Z,7.77
2018-10-17T19:43:53.809Z,6.97
2018-10-17T19:46:22.297Z,7.00
2018-10-17T19:48:50.803Z,6.53
2018-10-17T19:51:19.276Z,7.00
2018-10-17T19:53:47.764Z,6.63
2018-10-17T19:56:16.235Z,6.87
2018-10-17T19:58:44.705Z,7.67
2018-10-17T20:01:13.196Z,7.43
2018-10-17T20:03:41.675Z,7.57
2018-10-17T20:06:10.165Z,7.33
2018-10-17T20:08:38.672Z,7.27
2018-10-17T20:11:07.174Z,6.93
2018-10-17T20:13:35.647Z,7.40
2018-10-17T20:16:04.193Z,7.03
2018-10-17T20:18:32.680Z,7.47
2018-10-17T20:21:01.180Z,7.37
2018-10-17T20:23:29.659Z,7.70
2018-10-17T20:25:58.138Z,6.73
2018-10-17T20:28:26.723Z,7.07
2018-10-17T20:30:55.211Z,7.23
2018-10-17T20:33:23.699Z,7.47
2018-10-17T20:35:52.184Z,6.97
2018-10-17T20:38:20.677Z,7.50
2018-10-17T20:40:49.158Z,7.20
2018-10-17T20:43:17.832Z,7.67
2018-10-17T20:45:46.330Z,6.90
2018-10-17T20:48:14.810Z,7.03
2018-10-17T20:50:43.292Z,7.37
2018-10-17T20:53:11.763Z,7.37
2018-10-17T20:55:40.266Z,7.13
2018-10-17T20:58:08.791Z,7.17
2018-10-17T21:00:37.250Z,7.93
2018-10-17T21:03:05.887Z,7.50
2018-10-17T21:05:34.349Z,7.03
2018-10-17T21:08:02.831Z,7.30
2018-10-17T21:10:31.320Z,7.20
2018-10-17T21:12:59.823Z,6.90
2018-10-17T21:15:28.317Z,8.07
2018-10-17T21:17:56.807Z,7.57
2018-10-17T21:20:25.285Z,7.13
2018-10-17T21:22:53.759Z,7.20
2018-10-17T21:25:22.236Z,7.77
2018-10-17T21:27:50.710Z,7.50
2018-10-17T21:30:19.206Z,7.67
2018-10-17T21:32:47.687Z,7.70
2018-10-17T21:35:16.170Z,8.30
2018-10-17T21:37:44.738Z,7.47
2018-10-17T21:40:13.159Z,7.70
2018-10-17T21:42:41.707Z,8.23
2018-10-17T21:45:10.187Z,7.50
2018-10-17T21:47:38.668Z,7.80
2018-10-17T21:50:07.237Z,8.10
2018-10-17T21:52:35.694Z,7.37
2018-10-17T21:55:04.178Z,8.70
2018-10-17T21:57:32.674Z,8.77
2018-10-17T22:00:01.147Z,7.57
2018-10-17T22:02:29.622Z,8.33
2018-10-17T22:04:58.104Z,8.43
2018-10-17T22:07:26.571Z,7.93
2018-10-17T22:09:55.125Z,8.10
2018-10-17T22:12:23.547Z,7.67
2018-10-17T22:14:52.010Z,8.63
2018-10-17T22:17:25.794Z,8.27
2018-10-17T22:19:54.305Z,7.93
2018-10-17T22:22:22.872Z,7.77
2018-10-17T22:24:51.352Z,7.70
2018-10-17T22:27:19.910Z,7.97
2018-10-17T22:29:48.484Z,8.00
2018-10-17T22:32:16.999Z,7.33
2018-10-17T22:34:45.459Z,8.60
2018-10-17T22:37:13.954Z,8.43
2018-10-17T22:39:42.429Z,8.23
2018-10-17T22:42:10.905Z,7.87
2018-10-17T22:44:39.381Z,7.80
2018-10-17T22:47:07.874Z,8.30
2018-10-17T22:49:36.351Z,7.70
2018-10-17T22:52:04.853Z,7.57
2018-10-17T22:54:33.321Z,8.50
2018-10-17T22:57:01.798Z,8.63
2018-10-17T22:59:30.306Z,8.03
2018-10-17T23:01:58.862Z,7.60
2018-10-17T23:04:27.367Z,8.60
2018-10-17T23:06:55.859Z,7.90
2018-10-17T23:09:24.360Z,8.30
2018-10-17T23:11:52.842Z,7.97
2018-10-17T23:14:21.307Z,8.37
2018-10-17T23:16:49.770Z,8.07
2018-10-17T23:19:18.287Z,8.47
2018-10-17T23:21:46.795Z,8.00
2018-10-17T23:24:15.287Z,8.33
2018-10-17T23:26:43.756Z,8.50
2018-10-17T23:29:12.232Z,8.37
2018-10-17T23:31:40.716Z,8.33
2018-10-17T23:34:09.186Z,8.57
2018-10-17T23:36:37.672Z,7.87
2018-10-17T23:39:08.542Z,8.10
2018-10-17T23:41:37.174Z,8.50
2018-10-17T23:44:05.724Z,7.57
2018-10-17T23:46:34.214Z,8.10
2018-10-17T23:49:02.691Z,7.70
2018-10-17T23:51:31.166Z,8.60
2018-10-17T23:53:59.651Z,8.57
2018-10-17T23:56:28.149Z,8.80
2018-10-17T23:58:56.626Z,8.53
